createdAt,value
2024-01-12T00:00:34.560Z,99787.40
2024-01-12T00:04:45.038Z,99788.20
2024-01-12T00:08:35.286Z,99789.60
2024-01-12T00:12:24.810Z,99789.60
2024-01-12T00:16:15.489Z,99793.20
2024-01-12T00:20:05.969Z,99798.60
2024-01-12T00:23:56.144Z,99795.80
2024-01-12T00:27:46.965Z,99796.40
2024-01-12T00:31:36.656Z,99792.80
2024-01-12T00:35:08.742Z,99790.40
2024-01-12T00:38:58.236Z,99794.00
2024-01-12T00:42:47.832Z,99801.80
2024-01-12T00:46:38.499Z,99797.80
2024-01-12T00:50:28.166Z,99801.20
2024-01-12T00:54:18.936Z,99801.40
2024-01-12T00:58:08.902Z,99801.80
2024-01-12T01:01:58.801Z,99806.40
2024-01-12T01:05:49.286Z,99808.20
2024-01-12T01:09:39.494Z,99800.40
2024-01-12T01:13:28.918Z,99806.40
2024-01-12T01:17:19.048Z,99805.60
2024-01-12T01:21:08.736Z,99809.80
2024-01-12T01:24:58.709Z,99808.40
2024-01-12T01:28:48.774Z,99809.40
2024-01-12T01:32:38.414Z,99810.80
2024-01-12T01:36:28.642Z,99809.80
2024-01-12T01:40:10.476Z,99811.60
2024-01-12T01:44:01.102Z,99818.80
2024-01-12T01:47:51.033Z,99819.80
2024-01-12T01:51:29.017Z,99824.80
2024-01-12T01:55:11.210Z,99819.00
2024-01-12T01:59:01.055Z,99819.40
2024-01-12T02:02:50.469Z,99819.80
2024-01-12T02:06:42.717Z,99817.40
2024-01-12T02:10:32.629Z,99821.40
2024-01-12T02:14:22.777Z,99824.40
2024-01-12T02:18:12.880Z,99832.40
2024-01-12T02:22:02.324Z,99834.40
2024-01-12T02:25:52.399Z,99835.40
2024-01-12T02:29:42.027Z,99842.60
2024-01-12T02:33:31.504Z,99848.80
2024-01-12T02:37:20.989Z,99856.40
2024-01-12T02:41:10.811Z,99860.80
2024-01-12T02:45:00.533Z,99864.00
2024-01-12T02:48:42.551Z,99862.00
2024-01-12T02:52:32.602Z,99860.20
2024-01-12T02:56:22.735Z,99857.80
2024-01-12T03:00:12.576Z,99862.20
2024-01-12T03:04:02.055Z,99870.80
2024-01-12T03:07:52.656Z,99875.40
2024-01-12T03:11:43.780Z,99880.20
2024-01-12T03:15:33.986Z,99881.80
2024-01-12T03:19:24.119Z,99886.20
2024-01-12T03:23:14.763Z,99889.20
2024-01-12T03:27:04.229Z,99886.80
2024-01-12T03:30:54.622Z,99881.40
2024-01-12T03:34:44.401Z,99889.20
2024-01-12T03:38:34.051Z,99893.20
2024-01-12T03:42:09.022Z,99896.80
2024-01-12T03:45:58.486Z,99893.60
2024-01-12T03:49:51.236Z,99896.00
2024-01-12T03:53:42.410Z,99905.60
2024-01-12T03:57:33.060Z,99905.20
2024-01-12T04:01:22.415Z,99920.80
2024-01-12T04:05:11.895Z,99921.00
2024-01-12T04:09:01.989Z,99929.60
2024-01-12T04:12:53.067Z,99931.80
2024-01-12T04:16:43.517Z,99930.40
2024-01-12T04:20:32.981Z,99936.00
2024-01-12T04:24:22.758Z,99943.40
2024-01-12T04:28:13.037Z,99952.40
2024-01-12T04:32:05.406Z,99957.40
2024-01-12T04:35:55.208Z,99965.40
2024-01-12T04:39:45.638Z,99966.20
2024-01-12T04:43:34.971Z,99968.60
2024-01-12T04:47:23.215Z,99968.00
2024-01-12T04:51:06.062Z,99975.60
2024-01-12T04:54:34.596Z,99980.20
2024-01-12T04:58:24.700Z,99985.40
2024-01-12T05:02:14.400Z,99985.00
2024-01-12T05:06:04.181Z,99992.20
2024-01-12T05:09:53.749Z,99992.60
2024-01-12T05:13:43.840Z,99989.80
2024-01-12T05:17:36.769Z,99993.60
2024-01-12T05:21:26.356Z,100006.60
2024-01-12T05:25:14.816Z,100009.60
2024-01-12T05:29:04.909Z,100021.80
2024-01-12T05:32:54.887Z,100019.60
2024-01-12T05:36:44.612Z,100024.60
2024-01-12T05:40:34.668Z,100033.00
2024-01-12T05:44:24.227Z,100038.40
2024-01-12T05:48:13.763Z,100050.20
2024-01-12T05:52:04.995Z,100057.40
2024-01-12T05:55:55.261Z,100053.40
2024-01-12T05:59:46.367Z,100054.60
2024-01-12T06:03:35.914Z,100063.00
2024-01-12T06:07:25.161Z,100060.20
2024-01-12T06:11:15.449Z,100059.80
2024-01-12T06:14:54.813Z,100064.80
2024-01-12T06:18:45.114Z,100072.20
2024-01-12T06:22:36.383Z,100077.20
2024-01-12T06:26:26.594Z,100082.00
2024-01-12T06:30:16.270Z,100087.00
2024-01-12T06:34:06.053Z,100086.00
2024-01-12T06:37:56.549Z,100093.60
2024-01-12T06:41:46.193Z,100104.00
2024-01-12T06:45:36.392Z,100110.40
2024-01-12T06:49:26.801Z,100121.40
2024-01-12T06:53:17.282Z,100117.40
2024-01-12T06:56:44.668Z,100119.20
2024-01-12T07:00:36.100Z,100119.80
2024-01-12T07:04:26.124Z,100132.40
2024-01-12T07:08:15.673Z,100137.40
2024-01-12T07:12:05.157Z,100136.00
2024-01-12T07:15:54.715Z,100138.60
2024-01-12T07:20:05.668Z,100147.00
2024-01-12T07:23:56.176Z,100151.60
2024-01-12T07:27:47.271Z,100148.40
2024-01-12T07:31:32.048Z,100149.80
2024-01-12T07:35:22.171Z,100150.80
2024-01-12T07:39:11.888Z,100160.60
2024-01-12T07:43:01.490Z,100170.20
2024-01-12T07:46:51.424Z,100177.40
2024-01-12T07:50:42.282Z,100189.00
2024-01-12T07:54:20.395Z,100200.40
2024-01-12T07:58:10.174Z,100201.40
2024-01-12T08:01:59.608Z,100209.40
2024-01-12T08:05:53.313Z,100219.60
2024-01-12T08:09:42.831Z,100220.20
2024-01-12T08:13:32.925Z,100220.80
2024-01-12T08:17:22.340Z,100232.20
2024-01-12T08:21:13.552Z,100234.60
2024-01-12T08:24:48.718Z,100238.40
2024-01-12T08:28:39.453Z,100244.60
2024-01-12T08:32:20.726Z,100248.00
2024-01-12T08:35:44.510Z,100251.80
2024-01-12T08:39:34.038Z,100262.60
2024-01-12T08:43:23.661Z,100258.60
2024-01-12T08:47:13.615Z,100265.00
2024-01-12T08:51:04.807Z,100265.00
2024-01-12T08:54:55.579Z,100271.60
2024-01-12T08:58:43.809Z,100269.80
2024-01-12T09:02:32.515Z,100267.40
2024-01-12T09:06:23.236Z,100267.40
2024-01-12T09:10:13.965Z,100273.80
2024-01-12T09:14:04.245Z,100275.60
2024-01-12T09:17:55.444Z,100279.40
2024-01-12T09:21:46.583Z,100277.60
2024-01-12T09:25:38.973Z,100281.60
2024-01-12T09:29:27.997Z,100291.20
2024-01-12T09:33:10.410Z,100288.40
2024-01-12T09:37:00.755Z,100287.00
2024-01-12T09:40:50.797Z,100292.20
2024-01-12T09:44:44.940Z,100291.80
2024-01-12T09:48:41.460Z,100292.40
2024-01-12T09:52:22.780Z,100302.20
2024-01-12T09:56:12.224Z,100311.00
2024-01-12T10:00:02.030Z,100315.20
2024-01-12T10:03:51.705Z,100313.40
2024-01-12T10:07:28.267Z,100319.80
2024-01-12T10:11:19.226Z,100326.80
2024-01-12T10:15:08.909Z,100317.80
2024-01-12T10:18:58.969Z,100319.40
2024-01-12T10:22:48.730Z,100311.60
2024-01-12T10:26:40.352Z,100318.40
2024-01-12T10:30:30.049Z,100315.00
2024-01-12T10:34:22.545Z,100316.00
2024-01-12T10:38:12.743Z,100317.80
2024-01-12T10:42:03.996Z,100314.60
2024-01-12T10:45:54.538Z,100315.80
2024-01-12T10:49:49.971Z,100315.20
2024-01-12T10:53:40.289Z,100313.00
2024-01-12T10:57:29.830Z,100318.20
2024-01-12T11:01:02.158Z,100310.00
2024-01-12T11:04:52.175Z,100314.20
2024-01-12T11:08:41.920Z,100315.60
2024-01-12T11:12:23.947Z,100325.60
2024-01-12T11:16:13.325Z,100322.00
2024-01-12T11:20:03.323Z,100320.60
2024-01-12T11:23:54.949Z,100317.60
2024-01-12T11:27:44.967Z,100322.20
2024-01-12T11:31:34.603Z,100318.60
2024-01-12T11:35:26.460Z,100307.20
2024-01-12T11:39:21.331Z,100315.80
2024-01-12T11:43:11.601Z,100316.80
2024-01-12T11:47:02.278Z,100319.20
2024-01-12T11:50:52.690Z,100317.40
2024-01-12T11:54:43.261Z,100330.80
2024-01-12T11:58:33.738Z,100334.60
2024-01-12T12:02:23.251Z,100331.80
2024-01-12T12:06:13.176Z,100326.60
2024-01-12T12:09:47.899Z,100318.40
2024-01-12T12:13:40.329Z,100324.60
2024-01-12T12:17:33.600Z,100327.40
2024-01-12T12:21:23.872Z,100334.20
2024-01-12T12:25:14.499Z,100334.00
2024-01-12T12:29:05.084Z,100340.20
2024-01-12T12:32:54.669Z,100335.80
2024-01-12T12:36:44.972Z,100337.00
2024-01-12T12:40:36.515Z,100340.40
2024-01-12T12:44:26.019Z,100347.00
2024-01-12T12:48:16.301Z,100350.40
2024-01-12T12:52:09.096Z,100349.80
2024-01-12T12:55:50.233Z,100356.20
2024-01-12T12:59:40.800Z,100362.00
2024-01-12T13:03:32.575Z,100367.60
2024-01-12T13:07:21.047Z,100373.60
2024-01-12T13:10:43.146Z,100380.60
2024-01-12T13:14:33.304Z,100384.40
2024-01-12T13:18:23.037Z,100391.80
2024-01-12T13:22:13.605Z,100402.40
2024-01-12T13:26:04.172Z,100396.60
2024-01-12T13:29:54.439Z,100408.00
2024-01-12T13:33:46.221Z,100410.40
2024-01-12T13:37:36.419Z,100411.80
2024-01-12T13:41:28.103Z,100418.60
2024-01-12T13:45:19.027Z,100428.40
2024-01-12T13:49:08.928Z,100436.00
2024-01-12T13:52:58.449Z,100440.60
2024-01-12T13:56:47.357Z,100436.00
2024-01-12T14:00:36.811Z,100443.60
2024-01-12T14:04:26.265Z,100452.00
2024-01-12T14:08:16.332Z,100461.80
2024-01-12T14:12:08.374Z,100468.00
2024-01-12T14:16:00.004Z,100473.00
2024-01-12T14:19:49.527Z,100473.80
2024-01-12T14:23:40.025Z,100486.80
2024-01-12T14:27:29.597Z,100484.40
2024-01-12T14:31:19.658Z,100491.00
2024-01-12T14:35:10.194Z,100491.80
2024-01-12T14:38:59.909Z,100495.80
2024-01-12T14:42:48.961Z,100496.60
2024-01-12T14:46:38.651Z,100501.20
2024-01-12T14:50:28.751Z,100509.40
2024-01-12T14:54:09.115Z,100505.60
2024-01-12T14:57:58.642Z,100515.00
2024-01-12T15:01:49.055Z,100522.20
2024-01-12T15:05:38.653Z,100525.60
2024-01-12T15:09:28.685Z,100533.60
2024-01-12T15:13:18.363Z,100538.60
2024-01-12T15:17:08.666Z,100548.60
2024-01-12T15:20:59.027Z,100547.20
2024-01-12T15:24:48.514Z,100559.60
2024-01-12T15:28:38.541Z,100558.60
2024-01-12T15:32:29.287Z,100567.40
2024-01-12T15:36:19.257Z,100573.60
2024-01-12T15:40:08.837Z,100582.00
2024-01-12T15:43:59.429Z,100589.00
2024-01-12T15:47:49.638Z,100586.60
2024-01-12T15:51:39.678Z,100591.60
2024-01-12T15:55:30.229Z,100585.00
2024-01-12T15:59:20.310Z,100594.80
2024-01-12T16:03:09.964Z,100584.00
2024-01-12T16:06:59.698Z,100588.40
2024-01-12T16:10:42.212Z,100593.60
2024-01-12T16:14:32.292Z,100596.20
2024-01-12T16:18:21.851Z,100597.20
2024-01-12T16:22:11.329Z,100598.20
2024-01-12T16:26:02.433Z,100601.20
2024-01-12T16:29:52.578Z,100609.00
2024-01-12T16:33:43.462Z,100609.80
2024-01-12T16:37:33.068Z,100616.20
2024-01-12T16:41:10.726Z,100614.60
2024-01-12T16:44:56.029Z,100617.40
2024-01-12T16:48:49.254Z,100623.00
2024-01-12T16:52:41.654Z,100625.20
2024-01-12T16:56:32.848Z,100619.80
2024-01-12T17:00:23.752Z,100625.60
2024-01-12T17:04:13.343Z,100624.40
2024-01-12T17:08:02.738Z,100623.40
2024-01-12T17:11:52.835Z,100616.20
2024-01-12T17:15:42.866Z,100623.60
2024-01-12T17:19:31.279Z,100627.00
2024-01-12T17:23:21.547Z,100618.60
2024-01-12T17:27:12.861Z,100620.20
2024-01-12T17:31:02.404Z,100621.20
2024-01-12T17:34:50.526Z,100623.00
2024-01-12T17:38:40.184Z,100622.40
2024-01-12T17:42:30.312Z,100620.60
2024-01-12T17:46:10.616Z,100620.60
2024-01-12T17:50:00.816Z,100617.40
2024-01-12T17:53:51.034Z,100620.40
2024-01-12T17:57:33.249Z,100617.80
2024-01-12T18:01:22.925Z,100616.80
2024-01-12T18:05:13.680Z,100615.20
2024-01-12T18:09:03.211Z,100617.80
2024-01-12T18:12:44.532Z,100630.80
2024-01-12T18:16:35.452Z,100630.80
2024-01-12T18:20:26.580Z,100636.20
2024-01-12T18:24:16.527Z,100632.80
2024-01-12T18:28:06.200Z,100629.80
2024-01-12T18:31:55.760Z,100617.60
2024-01-12T18:35:47.960Z,100630.20
2024-01-12T18:39:37.468Z,100630.00
2024-01-12T18:43:28.508Z,100625.80
2024-01-12T18:47:18.677Z,100639.40
2024-01-12T18:51:09.129Z,100647.00
2024-01-12T18:54:58.588Z,100648.40
2024-01-12T18:58:49.598Z,100651.40
2024-01-12T19:02:40.921Z,100643.60
2024-01-12T19:06:32.426Z,100642.00
2024-01-12T19:10:22.013Z,100643.80
2024-01-12T19:14:12.518Z,100651.00
2024-01-12T19:18:03.543Z,100655.00
2024-01-12T19:21:57.572Z,100657.20
2024-01-12T19:25:47.621Z,100657.20
2024-01-12T19:29:38.523Z,100661.80
2024-01-12T19:33:28.364Z,100656.20
2024-01-12T19:37:16.539Z,100660.00
2024-01-12T19:40:51.000Z,100662.80
2024-01-12T19:44:41.797Z,100663.00
2024-01-12T19:48:31.982Z,100672.80
2024-01-12T19:52:22.322Z,100673.20
2024-01-12T19:56:12.896Z,100672.20
2024-01-12T20:00:02.701Z,100670.00
2024-01-12T20:03:52.857Z,100675.60
2024-01-12T20:07:42.366Z,100677.80
2024-01-12T20:11:32.485Z,100671.80
2024-01-12T20:15:22.612Z,100677.60
2024-01-12T20:19:13.922Z,100679.80
2024-01-12T20:23:04.199Z,100676.00
2024-01-12T20:26:50.225Z,100685.60
2024-01-12T20:30:40.928Z,100688.40
2024-01-12T20:34:31.712Z,100692.20
2024-01-12T20:38:21.953Z,100689.40
2024-01-12T20:42:12.235Z,100692.80
2024-01-12T20:46:01.647Z,100692.40
2024-01-12T20:49:51.789Z,100698.00
2024-01-12T20:53:41.996Z,100690.60
2024-01-12T20:57:31.440Z,100680.00
2024-01-12T21:01:22.835Z,100670.40
2024-01-12T21:05:12.385Z,100660.60
2024-01-12T21:09:02.555Z,100666.20
2024-01-12T21:12:52.639Z,100670.00
2024-01-12T21:16:42.077Z,100665.40
2024-01-12T21:20:31.959Z,100659.80
2024-01-12T21:24:23.208Z,100663.80
2024-01-12T21:28:12.777Z,100661.20
2024-01-12T21:32:03.736Z,100654.40
2024-01-12T21:35:53.799Z,100660.40
2024-01-12T21:39:45.874Z,100657.40
2024-01-12T21:43:35.286Z,100658.80
2024-01-12T21:47:27.154Z,100662.60
2024-01-12T21:51:17.956Z,100659.20
2024-01-12T21:55:08.190Z,100650.20
2024-01-12T21:58:57.618Z,100641.20
2024-01-12T22:02:48.077Z,100640.20
2024-01-12T22:06:37.608Z,100644.60
2024-01-12T22:10:27.225Z,100644.80
2024-01-12T22:14:17.377Z,100642.40
2024-01-12T22:18:06.922Z,100634.40
2024-01-12T22:21:56.337Z,100638.80
2024-01-12T22:25:45.530Z,100633.80
2024-01-12T22:29:35.480Z,100638.80
2024-01-12T22:33:25.405Z,100636.20
2024-01-12T22:37:11.133Z,100628.80
2024-01-12T22:41:01.170Z,100625.60
2024-01-12T22:44:51.929Z,100625.20
2024-01-12T22:48:41.511Z,100629.20
2024-01-12T22:52:31.723Z,100629.20
2024-01-12T22:56:24.477Z,100628.80
2024-01-12T23:00:15.156Z,100631.40
2024-01-12T23:03:57.219Z,100625.40
2024-01-12T23:07:47.390Z,100613.20
2024-01-12T23:11:45.769Z,100606.40
2024-01-12T23:15:35.248Z,100600.80
2024-01-12T23:19:25.498Z,100595.80
2024-01-12T23:23:15.827Z,100580.60
2024-01-12T23:27:07.312Z,100585.20
2024-01-12T23:30:52.994Z,100580.00
2024-01-12T23:34:43.357Z,100580.40
2024-01-12T23:38:35.244Z,100583.40
2024-01-12T23:42:25.078Z,100590.60
2024-01-12T23:46:14.517Z,100592.00
2024-01-12T23:50:05.194Z,100599.80
2024-01-12T23:53:55.643Z,100608.40
2024-01-12T23:57:46.279Z,100601.40
